Time;durP1;ratioP1;P1;durP2;ratioP2;P2;SDS_P1;SDS_P2;PMS_P1;PMS_P2;Temp;Humidity;BMP_temperature;BMP_pressure;BME280_temperature;BME280_humidity;BME280_pressure;Samples;Min_cycle;Max_cycle;Signal;HPM_P1;HPM_P2
2022/09/07 00:01:06;;;;;;;2.33;1.23;;;15.70;1.00;;;;;;5073104;28;20456;-71
2022/09/07 00:03:32;;;;;;;1.37;1.27;;;15.60;1.00;;;;;;5073056;28;20412;-73
2022/09/07 00:05:58;;;;;;;1.30;1.20;;;15.70;1.00;;;;;;5072834;28;20409;-72
2022/09/07 00:08:26;;;;;;;6.50;1.33;;;15.70;1.00;;;;;;5072636;28;20435;-71
2022/09/07 00:11:24;;;;;;;1.50;1.40;;;15.60;1.00;;;;;;5072496;28;20408;-70
2022/09/07 00:13:49;;;;;;;1.47;1.20;;;15.70;1.00;;;;;;5072465;28;20432;-72
2022/09/07 00:16:18;;;;;;;1.73;1.10;;;15.70;1.00;;;;;;5072338;28;20474;-72
2022/09/07 00:18:44;;;;;;;1.63;1.53;;;15.70;1.00;;;;;;5072862;28;20198;-72
2022/09/07 00:21:11;;;;;;;5.23;1.87;;;15.70;1.00;;;;;;5072921;28;20419;-72
2022/09/07 00:23:38;;;;;;;1.80;1.30;;;15.60;1.00;;;;;;5072802;28;20162;-70
2022/09/07 00:26:09;;;;;;;1.13;1.03;;;15.60;1.00;;;;;;5072108;28;20503;-73
2022/09/07 00:28:36;;;;;;;1.53;1.30;;;15.60;1.00;;;;;;5072148;28;20436;-72
2022/09/07 00:31:03;;;;;;;1.20;1.07;;;15.60;1.00;;;;;;5072934;28;20408;-70
2022/09/07 00:33:29;;;;;;;3.60;1.50;;;15.60;1.00;;;;;;5072852;28;20412;-73
2022/09/07 00:35:57;;;;;;;2.13;1.40;;;15.70;1.00;;;;;;5072437;28;20454;-69
2022/09/07 00:38:23;;;;;;;1.80;1.50;;;15.80;1.00;;;;;;5054298;28;21102;-70
2022/09/07 00:40:49;;;;;;;2.33;1.00;;;15.80;1.00;;;;;;5072695;28;20452;-70
2022/09/07 00:43:28;;;;;;;2.23;1.27;;;15.80;1.00;;;;;;5072645;28;20760;-70
2022/09/07 00:45:54;;;;;;;2.87;1.50;;;15.90;1.00;;;;;;5054666;28;20428;-69
2022/09/07 00:48:25;;;;;;;2.07;1.40;;;15.80;1.00;;;;;;5073829;28;20435;-70
2022/09/07 00:50:55;;;;;;;3.27;1.20;;;15.80;1.00;;;;;;5076671;28;20597;-70
2022/09/07 00:53:27;;;;;;;1.40;1.30;;;15.70;1.00;;;;;;5058985;28;20939;-72
2022/09/07 00:55:55;;;;;;;1.77;1.33;;;15.70;1.00;;;;;;5076191;28;20427;-71
2022/09/07 00:58:22;;;;;;;1.63;1.53;;;15.80;1.00;;;;;;5058355;28;20979;-72
2022/09/07 01:00:51;;;;;;;2.80;1.30;;;15.90;1.00;;;;;;5058308;28;20448;-70
2022/09/07 01:03:23;;;;;;;1.40;1.17;;;15.90;1.00;;;;;;5076380;28;20495;-70
2022/09/07 01:06:04;;;;;;;2.67;1.40;;;15.80;1.00;;;;;;5075990;28;20800;-72
2022/09/07 01:08:31;;;;;;;1.60;1.20;;;15.80;1.00;;;;;;5075655;28;20434;-70
2022/09/07 01:10:59;;;;;;;1.97;1.40;;;15.80;1.00;;;;;;5076190;28;20405;-70
2022/09/07 01:13:26;;;;;;;1.50;1.40;;;15.90;1.00;;;;;;5058125;28;20424;-72
2022/09/07 01:16:24;;;;;;;7.43;1.77;;;15.90;1.00;;;;;;5075893;28;20741;-73
2022/09/07 01:19:27;;;;;;;3.93;1.33;;;15.90;1.00;;;;;;5075953;28;20427;-70
2022/09/07 01:22:08;;;;;;;3.37;1.77;;;15.90;1.00;;;;;;5075836;28;20396;-72
2022/09/07 01:24:46;;;;;;;2.67;1.53;;;15.90;1.00;;;;;;5075898;28;20408;-70
2022/09/07 01:27:49;;;;;;;1.60;1.33;;;15.80;1.00;;;;;;5074656;28;20799;-73
2022/09/07 01:30:21;;;;;;;3.03;1.37;;;15.80;1.00;;;;;;5075690;28;20522;-73
2022/09/07 01:33:21;;;;;;;1.40;1.20;;;15.70;1.00;;;;;;5075869;28;20504;-70
2022/09/07 01:36:08;;;;;;;1.63;1.53;;;15.70;1.00;;;;;;5076188;28;20893;-70
2022/09/07 01:38:52;;;;;;;1.50;1.40;;;15.70;1.00;;;;;;5075448;28;20436;-70
2022/09/07 01:41:46;;;;;;;2.17;1.40;;;15.60;1.00;;;;;;5075549;28;20412;-70
2022/09/07 01:44:32;;;;;;;4.73;1.60;;;15.60;1.00;;;;;;5075421;28;20477;-72
2022/09/07 01:47:08;;;;;;;2.63;1.40;;;15.60;1.00;;;;;;5074973;28;20780;-70
2022/09/07 01:49:40;;;;;;;2.63;1.60;;;15.60;1.00;;;;;;5075496;28;20432;-70
2022/09/07 01:52:33;;;;;;;6.33;1.60;;;15.60;1.00;;;;;;5075870;28;20392;-70
2022/09/07 01:55:14;;;;;;;1.53;1.43;;;15.60;1.00;;;;;;5075442;28;20408;-72
2022/09/07 01:57:44;;;;;;;1.83;1.53;;;15.40;1.00;;;;;;5074394;28;20404;-70
2022/09/07 02:00:17;;;;;;;9.13;1.60;;;15.50;1.00;;;;;;5075189;28;20467;-72
2022/09/07 02:03:05;;;;;;;6.50;1.70;;;15.50;1.00;;;;;;5074831;28;20538;-70
2022/09/07 02:05:38;;;;;;;1.30;1.20;;;15.50;1.00;;;;;;5075659;28;20393;-72
2022/09/07 02:08:19;;;;;;;2.87;1.53;;;15.50;1.00;;;;;;5074315;28;20435;-72
2022/09/07 02:11:05;;;;;;;3.00;1.80;;;15.60;1.00;;;;;;5057365;28;20420;-72
2022/09/07 02:13:59;;;;;;;4.63;2.07;;;15.60;1.00;;;;;;5075126;28;20401;-69
2022/09/07 02:16:27;;;;;;;1.40;1.30;;;15.60;1.00;;;;;;5045267;28;20416;-72
2022/09/07 02:18:57;;;;;;;1.50;1.40;;;15.70;1.00;;;;;;5074853;28;20430;-72
2022/09/07 02:21:37;;;;;;;2.27;2.07;;;15.70;1.00;;;;;;5074337;28;20543;-73
2022/09/07 02:24:32;;;;;;;1.50;1.40;;;15.70;1.00;;;;;;5074797;28;20439;-72
2022/09/07 02:27:04;;;;;;;2.77;1.90;;;15.80;1.00;;;;;;5065514;28;20457;-71
2022/09/07 02:32:26;;;;;;;3.63;1.50;;;15.80;1.00;;;;;;5032517;28;20414;-72
2022/09/07 02:34:52;;;;;;;1.63;1.37;;;15.90;1.00;;;;;;5070730;28;20448;-72
2022/09/07 02:37:19;;;;;;;1.70;1.60;;;15.90;1.00;;;;;;5073289;28;20451;-72
2022/09/07 02:39:46;;;;;;;2.43;1.40;;;15.90;1.00;;;;;;5074294;28;20924;-71
2022/09/07 02:42:12;;;;;;;1.83;1.70;;;15.80;1.00;;;;;;5074648;28;20473;-72
2022/09/07 02:44:41;;;;;;;2.27;2.17;;;15.80;1.00;;;;;;5074368;28;20415;-72
2022/09/07 02:47:27;;;;;;;2.60;1.90;;;15.80;1.00;;;;;;5073577;28;20403;-73
2022/09/07 02:50:30;;;;;;;1.70;1.60;;;15.80;1.00;;;;;;5025978;28;20925;-70
2022/09/07 02:56:51;;;;;;;1.90;1.80;;;15.70;1.00;;;;;;5072547;28;20380;-71
2022/09/07 02:59:44;;;;;;;2.60;1.70;;;15.60;1.00;;;;;;5073808;28;20547;-70
2022/09/07 03:02:26;;;;;;;2.07;1.97;;;15.50;1.00;;;;;;5074044;28;20443;-73
2022/09/07 03:05:15;;;;;;;1.97;1.80;;;15.50;1.00;;;;;;5056254;28;20412;-72
2022/09/07 03:08:04;;;;;;;2.20;1.93;;;15.50;1.00;;;;;;5055380;28;20422;-72
2022/09/07 03:10:31;;;;;;;3.03;1.60;;;15.50;1.00;;;;;;5055496;28;20470;-72
2022/09/07 03:12:57;;;;;;;2.23;2.03;;;15.50;1.00;;;;;;5073826;28;20401;-71
2022/09/07 03:15:25;;;;;;;2.40;2.20;;;15.40;1.00;;;;;;5055611;28;20913;-72
2022/09/07 03:17:52;;;;;;;9.87;1.87;;;15.30;1.00;;;;;;5072945;28;20507;-71
2022/09/07 03:20:23;;;;;;;3.10;2.57;;;15.30;1.00;;;;;;5073697;28;20456;-70
2022/09/07 03:22:51;;;;;;;4.67;2.03;;;15.20;1.00;;;;;;5073642;28;20399;-73
2022/09/07 03:25:18;;;;;;;2.80;1.93;;;15.30;1.00;;;;;;5073857;28;20484;-70
2022/09/07 03:27:44;;;;;;;6.13;2.47;;;15.30;1.00;;;;;;5072896;28;20404;-72
2022/09/07 03:30:11;;;;;;;2.00;1.90;;;15.40;1.00;;;;;;5073582;28;20428;-72
2022/09/07 03:32:38;;;;;;;2.50;2.20;;;15.40;1.00;;;;;;5072802;28;20412;-70
2022/09/07 03:35:07;;;;;;;2.07;1.87;;;15.50;1.00;;;;;;5073313;28;20404;-73
2022/09/07 03:37:37;;;;;;;2.53;2.33;;;15.50;1.00;;;;;;5073248;28;20408;-73
2022/09/07 03:40:06;;;;;;;2.70;1.93;;;15.50;1.00;;;;;;5073329;28;20451;-72
2022/09/07 03:42:32;;;;;;;3.80;2.10;;;15.50;1.00;;;;;;5073448;28;20936;-72
2022/09/07 03:44:58;;;;;;;4.03;2.70;;;15.60;1.00;;;;;;5073392;28;20407;-72
2022/09/07 03:47:27;;;;;;;2.27;2.07;;;15.60;1.00;;;;;;5072026;28;20416;-72
2022/09/07 03:49:53;;;;;;;2.80;2.17;;;15.60;1.00;;;;;;5073315;28;20174;-70
2022/09/07 03:52:19;;;;;;;2.30;2.10;;;15.70;1.00;;;;;;5073144;28;20401;-70
2022/09/07 03:54:45;;;;;;;2.60;2.30;;;15.70;1.00;;;;;;5073178;28;21113;-72
2022/09/07 03:57:12;;;;;;;1.63;1.53;;;15.80;1.00;;;;;;5072428;28;20412;-73
2022/09/07 03:59:38;;;;;;;7.17;1.83;;;15.80;1.00;;;;;;5072985;28;20506;-73
2022/09/07 04:02:04;;;;;;;5.40;2.40;;;15.90;1.00;;;;;;5073045;28;20455;-70
2022/09/07 04:04:33;;;;;;;5.80;2.07;;;15.90;1.00;;;;;;5072881;28;20907;-71
2022/09/07 04:06:59;;;;;;;4.40;2.20;;;15.90;1.00;;;;;;5072747;28;20400;-70
2022/09/07 04:09:28;;;;;;;3.03;2.50;;;15.90;1.00;;;;;;5054630;28;20436;-71
2022/09/07 04:11:54;;;;;;;3.73;2.50;;;15.90;1.00;;;;;;5072952;28;20909;-72
2022/09/07 04:14:33;;;;;;;2.90;1.90;;;15.90;1.00;;;;;;5073059;28;20456;-70
2022/09/07 04:16:59;;;;;;;4.93;2.47;;;15.90;1.00;;;;;;5072469;28;20408;-70
2022/09/07 04:19:25;;;;;;;2.43;2.23;;;15.90;1.00;;;;;;5072750;28;20460;-73
2022/09/07 04:21:51;;;;;;;2.80;2.47;;;15.80;1.00;;;;;;5075763;28;20488;-70
2022/09/07 04:24:17;;;;;;;3.20;2.20;;;15.80;1.00;;;;;;5079638;28;20411;-73
2022/09/07 04:26:44;;;;;;;2.63;2.43;;;15.80;1.00;;;;;;5077738;28;20924;-71
2022/09/07 04:29:11;;;;;;;2.57;2.37;;;15.80;1.00;;;;;;5079200;28;20455;-70
2022/09/07 04:31:38;;;;;;;2.13;2.03;;;15.80;1.00;;;;;;5079506;28;20400;-72
2022/09/07 04:34:05;;;;;;;6.10;2.30;;;15.80;1.00;;;;;;5079491;28;20400;-73
2022/09/07 04:36:31;;;;;;;5.40;2.77;;;15.80;1.00;;;;;;5078734;28;20454;-72
2022/09/07 04:39:02;;;;;;;4.33;2.40;;;15.70;1.00;;;;;;5079296;28;20916;-70
2022/09/07 04:41:30;;;;;;;2.33;2.13;;;15.80;1.00;;;;;;5079347;28;20428;-71
2022/09/07 04:43:58;;;;;;;3.67;2.73;;;15.70;1.00;;;;;;5079080;28;21024;-70
2022/09/07 04:46:32;;;;;;;3.30;2.20;;;15.70;1.00;;;;;;5060336;28;20416;-72
2022/09/07 04:49:07;;;;;;;6.20;1.80;;;15.60;1.00;;;;;;5079436;28;20413;-72
2022/09/07 04:51:34;;;;;;;2.40;2.00;;;15.40;1.00;;;;;;5079273;28;20443;-73
2022/09/07 04:54:01;;;;;;;2.67;2.17;;;15.40;1.00;;;;;;5078960;28;20486;-75
2022/09/07 04:56:27;;;;;;;3.87;2.27;;;15.30;1.00;;;;;;5078699;28;20915;-71
2022/09/07 04:59:07;;;;;;;;;;;;;;;;;;;;;
2022/09/07 05:01:34;;;;;;;6.47;2.60;;;15.20;1.00;;;;;;5079086;28;20488;-71
2022/09/07 05:04:00;;;;;;;2.70;2.50;;;15.30;1.00;;;;;;5078554;28;20911;-69
2022/09/07 05:06:30;;;;;;;16.13;3.03;;;15.30;1.00;;;;;;5078258;28;20916;-72
2022/09/07 05:09:06;;;;;;;3.07;2.87;;;15.40;1.00;;;;;;5079178;28;20781;-69
2022/09/07 05:11:32;;;;;;;3.50;3.20;;;15.30;1.00;;;;;;5079300;28;20419;-72
2022/09/07 05:14:00;;;;;;;4.77;2.83;;;15.40;1.00;;;;;;5061281;28;20506;-69
2022/09/07 05:16:26;;;;;;;3.83;2.60;;;15.50;1.00;;;;;;5078365;28;20446;-71
2022/09/07 05:18:55;;;;;;;3.43;2.20;;;15.60;1.00;;;;;;5079045;28;20833;-70
2022/09/07 05:21:24;;;;;;;7.03;2.73;;;15.60;1.00;;;;;;5078215;28;20455;-70
2022/09/07 05:23:52;;;;;;;2.07;1.97;;;15.70;1.00;;;;;;5078950;28;20401;-73
2022/09/07 05:26:19;;;;;;;8.70;2.83;;;15.70;1.00;;;;;;5078328;28;20896;-70
2022/09/07 05:28:46;;;;;;;3.17;2.97;;;15.70;1.00;;;;;;5078759;28;20543;-72
2022/09/07 05:31:15;;;;;;;3.30;2.47;;;15.80;1.00;;;;;;5078817;28;20421;-72
2022/09/07 05:33:52;;;;;;;3.63;2.40;;;15.80;1.00;;;;;;5058393;28;20417;-72
2022/09/07 05:36:19;;;;;;;2.60;2.40;;;15.80;1.00;;;;;;5057034;28;20465;-69
2022/09/07 05:38:45;;;;;;;2.47;2.27;;;15.80;1.00;;;;;;5056965;28;20786;-70
2022/09/07 05:41:12;;;;;;;2.60;2.33;;;15.80;1.00;;;;;;5057396;28;20460;-72
2022/09/07 05:43:44;;;;;;;3.13;2.67;;;15.80;1.00;;;;;;5057669;28;20405;-70
2022/09/07 05:46:11;;;;;;;2.80;2.50;;;15.80;1.00;;;;;;5074858;28;20433;-70
2022/09/07 05:53:04;;;;;;;;;;;;;;;;;;;;;
2022/09/07 05:55:31;;;;;;;7.13;2.13;;;16.10;1.00;;;;;;5007440;28;20412;-70
2022/09/07 05:57:57;;;;;;;2.73;2.33;;;16.20;1.00;;;;;;5055909;28;20440;-73
2022/09/07 06:00:23;;;;;;;5.07;1.93;;;16.20;1.00;;;;;;5074987;28;20452;-71
2022/09/07 06:02:49;;;;;;;4.37;2.97;;;16.20;1.00;;;;;;5074009;28;20178;-70
2022/09/07 06:05:18;;;;;;;3.77;2.57;;;16.30;1.00;;;;;;5075124;28;20249;-72
2022/09/07 06:07:47;;;;;;;3.30;2.83;;;16.30;1.00;;;;;;5056515;28;20431;-71
2022/09/07 06:10:13;;;;;;;3.13;2.83;;;16.40;1.00;;;;;;5075521;28;20444;-72
2022/09/07 06:12:45;;;;;;;2.50;2.30;;;16.40;1.00;;;;;;5057180;28;20432;-73
2022/09/07 06:15:11;;;;;;;3.13;2.33;;;16.50;1.00;;;;;;5074650;28;20503;-73
2022/09/07 06:17:40;;;;;;;3.10;2.83;;;16.50;1.00;;;;;;5074122;28;20400;-71
2022/09/07 06:20:19;;;;;;;7.47;2.43;;;16.60;1.00;;;;;;5074730;28;20477;-72
2022/09/07 06:22:48;;;;;;;3.00;2.03;;;16.60;1.00;;;;;;5056825;28;20416;-73
2022/09/07 06:25:14;;;;;;;4.30;2.70;;;16.60;1.00;;;;;;5074804;28;20416;-73
2022/09/07 06:27:39;;;;;;;4.90;3.63;;;16.60;1.00;;;;;;5074063;28;20911;-70
2022/09/07 06:30:06;;;;;;;3.83;2.47;;;16.50;1.00;;;;;;5056700;28;20475;-73
2022/09/07 06:32:36;;;;;;;3.03;2.73;;;16.40;1.00;;;;;;5056144;28;20178;-70
2022/09/07 06:35:03;;;;;;;2.53;2.30;;;16.40;1.00;;;;;;5074666;28;20889;-71
2022/09/07 06:37:29;;;;;;;5.40;2.50;;;16.40;1.00;;;;;;5055926;28;20424;-70
2022/09/07 06:39:55;;;;;;;2.57;2.37;;;16.50;1.00;;;;;;5074281;28;20452;-70
2022/09/07 06:48:53;;;;;;;2.53;2.30;;;16.80;1.00;;;;;;5002230;28;20482;-73
2022/09/07 06:51:25;;;;;;;3.10;2.80;;;16.80;1.00;;;;;;5055826;28;20905;-73
2022/09/07 06:53:55;;;;;;;4.47;3.40;;;16.90;1.00;;;;;;5056333;28;20494;-70
2022/09/07 06:56:21;;;;;;;2.80;2.60;;;16.90;1.00;;;;;;5073590;28;20494;-73
2022/09/07 06:58:51;;;;;;;2.67;2.47;;;17.00;1.00;;;;;;5055961;28;20447;-73
2022/09/07 07:01:22;;;;;;;4.40;2.43;;;17.10;1.00;;;;;;5073948;28;20959;-72
2022/09/07 07:03:49;;;;;;;3.83;2.90;;;17.10;1.00;;;;;;5074033;28;20400;-70
2022/09/07 07:06:28;;;;;;;6.43;2.50;;;17.10;1.00;;;;;;5073526;28;20877;-73
2022/09/07 07:09:09;;;;;;;4.07;2.80;;;17.10;1.00;;;;;;5051363;28;20467;-72
2022/09/07 07:11:36;;;;;;;2.87;2.67;;;17.20;1.00;;;;;;5073823;28;20423;-72
2022/09/07 07:14:03;;;;;;;3.27;2.93;;;17.10;1.00;;;;;;5073732;28;20483;-73
2022/09/07 07:16:29;;;;;;;2.90;2.60;;;17.10;1.00;;;;;;5055217;28;20897;-70
2022/09/07 07:19:01;;;;;;;3.70;2.17;;;17.10;1.00;;;;;;5055578;28;20463;-71
2022/09/07 07:21:40;;;;;;;5.70;3.73;;;17.20;1.00;;;;;;5073678;28;20464;-70
2022/09/07 07:24:09;;;;;;;3.67;2.90;;;17.20;1.00;;;;;;5073620;28;20400;-72
2022/09/07 07:26:35;;;;;;;2.90;2.20;;;17.30;1.00;;;;;;5054260;28;20412;-73
2022/09/07 07:29:01;;;;;;;3.00;2.70;;;17.30;1.00;;;;;;5055301;28;20452;-72
2022/09/07 07:31:47;;;;;;;2.77;2.57;;;17.30;1.00;;;;;;5055667;28;20170;-70
2022/09/07 07:34:24;;;;;;;;;;;;;;;;;;;;;
2022/09/07 07:36:50;;;;;;;3.57;2.80;;;17.40;1.00;;;;;;5072535;28;20764;-71
2022/09/07 07:39:16;;;;;;;5.30;3.20;;;17.40;1.00;;;;;;5055082;28;20507;-73
2022/09/07 07:41:51;;;;;;;3.40;2.60;;;17.50;1.00;;;;;;5073369;28;20400;-72
2022/09/07 07:44:17;;;;;;;3.63;3.30;;;17.50;1.00;;;;;;5055110;28;20462;-70
2022/09/07 07:46:49;;;;;;;4.53;3.13;;;17.60;1.00;;;;;;5054747;28;20774;-73
2022/09/07 07:49:18;;;;;;;4.87;3.30;;;17.60;1.00;;;;;;5055012;28;20433;-75
2022/09/07 07:51:44;;;;;;;7.10;2.60;;;17.50;1.00;;;;;;5055197;28;20412;-76
2022/09/07 07:54:10;;;;;;;5.50;2.80;;;17.60;1.00;;;;;;5073172;28;20392;-74
2022/09/07 07:56:36;;;;;;;3.13;2.73;;;17.60;1.00;;;;;;5054231;28;20765;-71
2022/09/07 07:59:02;;;;;;;3.40;2.90;;;17.50;1.00;;;;;;5073106;28;20429;-74
2022/09/07 08:01:28;;;;;;;7.43;3.30;;;17.60;1.00;;;;;;5055013;28;20456;-73
2022/09/07 08:03:54;;;;;;;12.20;3.30;;;17.70;1.00;;;;;;5054633;28;20408;-73
2022/09/07 08:06:20;;;;;;;3.87;2.80;;;17.70;1.00;;;;;;5054281;28;20170;-71
2022/09/07 08:08:47;;;;;;;3.20;2.90;;;17.70;1.00;;;;;;5072968;28;20429;-71
2022/09/07 08:11:17;;;;;;;5.10;2.57;;;17.70;1.00;;;;;;5072406;28;20889;-71
2022/09/07 08:13:45;;;;;;;3.13;2.50;;;17.80;1.00;;;;;;5054827;28;20413;-71
2022/09/07 08:19:09;;;;;;;3.10;2.90;;;18.00;1.00;;;;;;5072620;28;20431;-70
2022/09/07 08:21:35;;;;;;;9.83;3.40;;;18.00;1.00;;;;;;5072156;28;20470;-70
2022/09/07 08:24:02;;;;;;;5.00;3.10;;;18.10;1.00;;;;;;5054802;28;20412;-74
2022/09/07 08:26:28;;;;;;;3.60;2.67;;;18.20;1.00;;;;;;5072169;28;20483;-74
2022/09/07 08:28:55;;;;;;;2.97;2.43;;;18.20;1.00;;;;;;5072685;28;20924;-71
2022/09/07 08:31:23;;;;;;;3.50;2.53;;;18.20;1.00;;;;;;5072800;28;20428;-73
2022/09/07 08:33:49;;;;;;;4.93;2.97;;;18.30;1.00;;;;;;5072742;28;20432;-75
2022/09/07 08:36:19;;;;;;;4.20;3.10;;;18.30;1.00;;;;;;5054165;28;20401;-71
2022/09/07 08:38:49;;;;;;;3.53;2.80;;;18.30;1.00;;;;;;5071964;28;20435;-73
2022/09/07 08:41:36;;;;;;;3.90;2.30;;;18.40;1.00;;;;;;5072632;28;20451;-71
2022/09/07 08:47:58;;;;;;;5.20;2.30;;;18.40;1.00;;;;;;5071697;28;20442;-74
2022/09/07 08:50:44;;;;;;;6.67;3.40;;;18.40;1.00;;;;;;5072582;28;20412;-70
2022/09/07 08:53:15;;;;;;;2.60;2.40;;;18.40;1.00;;;;;;5054628;28;20423;-71
2022/09/07 08:56:05;;;;;;;3.60;3.30;;;18.40;1.00;;;;;;5071918;28;20499;-74
2022/09/07 08:58:43;;;;;;;3.13;2.77;;;18.40;1.00;;;;;;5054992;28;20427;-74
2022/09/07 09:01:17;;;;;;;6.97;3.37;;;18.40;1.00;;;;;;5072437;28;20451;-74
2022/09/07 09:03:46;;;;;;;3.30;3.00;;;18.30;1.00;;;;;;5054753;28;20420;-71
2022/09/07 09:06:51;;;;;;;3.33;3.03;;;18.30;1.00;;;;;;5053891;28;20400;-71
2022/09/07 09:09:32;;;;;;;2.87;2.50;;;18.40;1.00;;;;;;5074513;28;20476;-71
2022/09/07 09:12:35;;;;;;;3.30;2.80;;;18.30;1.00;;;;;;5076190;28;20897;-74
2022/09/07 09:15:20;;;;;;;9.03;3.07;;;18.40;1.00;;;;;;5058170;28;20416;-71
2022/09/07 09:18:09;;;;;;;4.63;3.07;;;18.20;1.00;;;;;;5075296;28;20428;-71
2022/09/07 09:20:48;;;;;;;5.43;3.80;;;18.20;1.00;;;;;;5058214;28;20456;-71
2022/09/07 09:23:19;;;;;;;6.70;3.90;;;18.20;1.00;;;;;;5075948;28;20402;-74
2022/09/07 09:25:55;;;;;;;15.10;4.63;;;18.20;1.00;;;;;;5075668;28;20900;-71
2022/09/07 09:28:21;;;;;;;5.13;3.70;;;18.20;1.00;;;;;;5075306;28;20499;-71
2022/09/07 09:30:49;;;;;;;4.73;3.97;;;18.20;1.00;;;;;;5057445;28;20460;-71
2022/09/07 09:36:54;;;;;;;5.60;3.90;;;18.30;1.00;;;;;;5075192;28;20384;-71
2022/09/07 09:39:37;;;;;;;9.00;4.30;;;18.20;1.00;;;;;;5057618;28;20435;-74
2022/09/07 09:42:22;;;;;;;5.90;3.30;;;18.10;1.00;;;;;;5075586;28;20401;-73
2022/09/07 09:44:48;;;;;;;3.50;3.20;;;18.20;1.00;;;;;;5075540;28;20428;-73
2022/09/07 09:47:31;;;;;;;5.50;3.30;;;18.30;1.00;;;;;;5057037;28;20462;-70
2022/09/07 09:50:11;;;;;;;4.97;3.23;;;18.20;1.00;;;;;;5075055;28;20405;-74
2022/09/07 09:52:37;;;;;;;5.07;3.20;;;18.20;1.00;;;;;;5057612;28;20436;-70
2022/09/07 09:55:15;;;;;;;3.63;2.93;;;18.30;1.00;;;;;;5057705;28;20412;-74
2022/09/07 09:57:51;;;;;;;4.10;3.30;;;18.40;1.00;;;;;;5074628;28;20935;-69
2022/09/07 10:00:23;;;;;;;3.50;3.30;;;18.40;1.00;;;;;;5075134;28;20498;-73
2022/09/07 10:03:15;;;;;;;3.40;3.10;;;18.50;1.00;;;;;;5057510;28;20466;-73
2022/09/07 10:05:43;;;;;;;5.13;3.30;;;18.50;1.00;;;;;;5074514;28;20415;-73
2022/09/07 10:08:37;;;;;;;7.00;3.70;;;18.40;1.00;;;;;;5074485;28;20927;-74
2022/09/07 10:11:07;;;;;;;4.60;3.73;;;18.30;1.00;;;;;;5074750;28;20404;-74
2022/09/07 10:13:56;;;;;;;4.90;3.83;;;18.30;1.00;;;;;;5057438;28;20405;-75
2022/09/07 10:20:34;;;;;;;4.10;3.33;;;18.30;1.00;;;;;;5074942;28;20451;-74
2022/09/07 10:23:01;;;;;;;5.47;4.33;;;18.30;1.00;;;;;;5075342;28;20731;-70
2022/09/07 10:25:44;;;;;;;6.50;4.43;;;18.20;1.00;;;;;;5056821;28;20417;-71
2022/09/07 10:28:10;;;;;;;7.30;5.00;;;18.20;1.00;;;;;;5056417;28;20440;-74
2022/09/07 10:31:09;;;;;;;4.03;3.73;;;18.20;1.00;;;;;;5057194;28;20427;-70
2022/09/07 10:34:01;;;;;;;10.50;4.30;;;18.20;1.00;;;;;;5075074;28;20404;-71
2022/09/07 10:36:47;;;;;;;4.33;3.93;;;18.00;1.00;;;;;;5073534;28;20427;-74
2022/09/07 10:39:17;;;;;;;5.30;4.23;;;17.90;1.00;;;;;;5057029;28;20450;-74
2022/09/07 10:42:05;;;;;;;4.50;4.20;;;18.00;1.00;;;;;;5074567;28;20408;-74
2022/09/07 10:44:58;;;;;;;4.27;3.60;;;18.00;1.00;;;;;;5074565;28;20401;-71
2022/09/07 10:47:47;;;;;;;6.90;4.40;;;18.10;1.00;;;;;;5074228;28;21001;-71
2022/09/07 10:50:38;;;;;;;6.17;4.93;;;18.00;1.00;;;;;;5056638;28;20428;-71
2022/09/07 10:56:55;;;;;;;11.17;4.87;;;18.00;1.00;;;;;;5073512;28;20419;-74
2022/09/07 10:59:53;;;;;;;7.40;5.50;;;18.00;1.00;;;;;;5056419;28;20575;-71
2022/09/07 11:02:44;;;;;;;9.30;5.90;;;18.00;1.00;;;;;;5074590;28;20404;-74
2022/09/07 11:05:57;;;;;;;8.40;5.77;;;18.00;1.00;;;;;;5056477;28;20416;-74
2022/09/07 11:08:26;;;;;;;13.07;4.97;;;17.90;1.00;;;;;;4992469;28;20436;-74
2022/09/07 11:11:15;;;;;;;6.67;4.90;;;17.90;1.00;;;;;;4992927;28;20475;-73
2022/09/07 11:13:43;;;;;;;5.23;4.73;;;17.80;1.00;;;;;;5037641;28;20515;-73
2022/09/07 11:16:17;;;;;;;5.37;4.87;;;17.60;1.00;;;;;;5055228;28;20420;-73
2022/09/07 11:18:54;;;;;;;11.53;6.50;;;17.30;1.00;;;;;;5074011;28;20463;-73
2022/09/07 11:21:27;;;;;;;13.20;6.07;;;17.10;1.00;;;;;;5056184;28;20521;-73
2022/09/07 11:23:58;;;;;;;19.47;6.93;;;17.00;1.00;;;;;;5074278;28;20431;-73
2022/09/07 11:26:52;;;;;;;7.10;6.30;;;17.10;1.00;;;;;;5073415;28;20400;-72
2022/09/07 11:29:41;;;;;;;7.53;6.37;;;17.10;1.00;;;;;;5071047;28;20565;-73
2022/09/07 11:32:17;;;;;;;11.07;6.70;;;17.10;5.60;;;;;;5055245;28;20415;-74
2022/09/07 11:35:00;;;;;;;8.30;6.07;;;17.10;1.00;;;;;;5073339;28;20419;-73
2022/09/07 11:37:58;;;;;;;7.50;6.60;;;17.10;13.50;;;;;;5072959;28;20413;-73
2022/09/07 11:44:34;;;;;;;10.33;7.17;;;17.40;22.60;;;;;;5073734;28;20385;-73
2022/09/07 11:47:11;;;;;;;9.00;5.40;;;17.40;34.30;;;;;;5072812;28;20539;-72
2022/09/07 11:49:37;;;;;;;8.60;6.70;;;17.50;53.00;;;;;;5073692;28;20486;-72
2022/09/07 11:52:16;;;;;;;8.43;6.30;;;17.40;57.50;;;;;;5073750;28;20876;-72
2022/09/07 11:54:50;;;;;;;7.90;5.80;;;17.50;49.00;;;;;;5073252;28;20182;-74
2022/09/07 11:57:45;;;;;;;7.30;6.10;;;17.70;51.60;;;;;;5072711;28;20406;-72
2022/09/07 12:00:26;;;;;;;7.20;6.10;;;17.80;45.20;;;;;;5073423;28;20531;-72
2022/09/07 12:03:24;;;;;;;5.30;4.90;;;17.90;53.50;;;;;;5073629;28;20419;-72
2022/09/07 12:06:22;;;;;;;6.57;5.97;;;18.20;54.30;;;;;;5072825;28;20498;-72
2022/09/07 12:09:19;;;;;;;8.47;5.00;;;18.30;53.50;;;;;;5073430;28;20443;-73
2022/09/07 12:12:16;;;;;;;7.63;4.93;;;18.20;29.40;;;;;;5054894;28;20431;-72
2022/09/07 12:15:02;;;;;;;6.93;5.73;;;18.30;27.60;;;;;;5073445;28;20870;-73
2022/09/07 12:18:05;;;;;;;7.20;4.93;;;18.70;28.40;;;;;;5072422;28;20415;-72
2022/09/07 12:20:42;;;;;;;7.50;4.20;;;19.00;12.00;;;;;;5073122;28;20562;-73
2022/09/07 12:23:32;;;;;;;8.57;5.80;;;19.20;1.20;;;;;;5073292;28;20458;-72
2022/09/07 12:26:32;;;;;;;5.30;4.80;;;19.20;1.00;;;;;;5060528;28;20428;-71
2022/09/07 12:28:58;;;;;;;5.07;4.57;;;19.30;1.00;;;;;;5072594;28;20782;-71
2022/09/07 12:31:47;;;;;;;5.17;4.77;;;19.20;1.00;;;;;;5073000;28;20404;-73
2022/09/07 12:34:34;;;;;;;5.33;4.83;;;19.20;1.00;;;;;;5055244;28;20408;-71
2022/09/07 12:37:02;;;;;;;7.83;5.37;;;19.20;1.00;;;;;;5072581;28;20428;-73
2022/09/07 12:39:31;;;;;;;6.13;5.53;;;19.20;1.00;;;;;;5072748;28;20432;-73
2022/09/07 12:42:08;;;;;;;7.37;5.20;;;19.40;1.00;;;;;;5073093;28;20415;-73
2022/09/07 12:44:36;;;;;;;5.27;4.70;;;19.60;1.00;;;;;;5077277;28;20417;-71
2022/09/07 12:47:11;;;;;;;4.73;4.40;;;20.10;1.00;;;;;;5075917;28;20450;-71
2022/09/07 12:49:37;;;;;;;8.60;5.10;;;21.00;1.00;;;;;;5076776;28;20490;-71
2022/09/07 12:52:06;;;;;;;6.43;5.70;;;21.80;1.00;;;;;;5076939;28;20412;-74
2022/09/07 12:54:45;;;;;;;5.03;4.50;;;22.40;1.00;;;;;;5076778;28;20440;-73
2022/09/07 12:57:28;;;;;;;4.90;4.50;;;22.70;1.00;;;;;;5076120;28;20440;-74
2022/09/07 13:00:04;;;;;;;12.67;6.20;;;22.90;1.00;;;;;;5076758;28;20575;-73
2022/09/07 13:03:05;;;;;;;6.17;5.60;;;22.50;1.00;;;;;;5076914;28;20403;-70
2022/09/07 13:05:57;;;;;;;6.00;5.40;;;22.10;1.00;;;;;;5076222;28;20490;-72
2022/09/07 13:09:00;;;;;;;5.93;5.23;;;22.20;1.00;;;;;;5076194;28;20416;-70
2022/09/07 13:11:35;;;;;;;7.83;6.03;;;22.30;1.00;;;;;;5076520;28;20412;-71
2022/09/07 13:14:19;;;;;;;6.60;5.33;;;22.30;1.00;;;;;;5076607;28;20437;-74
2022/09/07 13:16:46;;;;;;;6.33;5.30;;;22.30;1.00;;;;;;5075911;28;20404;-74
2022/09/07 13:19:45;;;;;;;4.70;4.40;;;22.50;1.00;;;;;;5076604;28;20420;-71
2022/09/07 13:22:29;;;;;;;8.27;5.50;;;22.50;1.00;;;;;;5076145;28;20507;-73
2022/09/07 13:24:58;;;;;;;8.20;4.80;;;22.70;1.00;;;;;;5076348;28;20400;-74
2022/09/07 13:27:39;;;;;;;9.50;5.30;;;22.70;1.00;;;;;;5075720;28;20758;-70
2022/09/07 13:30:14;;;;;;;9.10;6.20;;;22.70;1.00;;;;;;5076100;28;20416;-74
2022/09/07 13:32:41;;;;;;;6.33;5.73;;;22.90;1.00;;;;;;5076252;28;20527;-74
2022/09/07 13:35:07;;;;;;;6.63;6.03;;;23.00;1.00;;;;;;5076167;28;20425;-70
2022/09/07 13:37:55;;;;;;;5.53;4.80;;;23.10;1.00;;;;;;5075360;28;20458;-72
2022/09/07 13:40:32;;;;;;;7.27;6.50;;;23.10;1.00;;;;;;5075884;28;20538;-73
2022/09/07 13:42:59;;;;;;;6.43;5.23;;;23.40;1.00;;;;;;5076012;28;20403;-74
2022/09/07 13:45:53;;;;;;;9.40;5.63;;;23.50;1.00;;;;;;5058236;28;21011;-74
2022/09/07 13:48:34;;;;;;;6.50;5.90;;;23.70;1.00;;;;;;5075269;28;20428;-73
2022/09/07 13:51:17;;;;;;;6.57;5.20;;;23.60;1.00;;;;;;5075947;28;20404;-74
2022/09/07 13:54:05;;;;;;;12.50;6.00;;;23.50;1.00;;;;;;5075315;28;20415;-73
2022/09/07 13:56:46;;;;;;;6.10;5.60;;;23.50;1.00;;;;;;5075468;28;20408;-71
2022/09/07 13:59:17;;;;;;;5.47;5.03;;;23.60;1.00;;;;;;5075140;28;20468;-70
2022/09/07 14:01:46;;;;;;;6.40;5.53;;;23.60;1.00;;;;;;5075625;28;20962;-70
2022/09/07 14:04:24;;;;;;;5.93;5.17;;;23.80;1.00;;;;;;5075391;28;20451;-76
2022/09/07 14:06:59;;;;;;;6.50;5.47;;;24.00;1.00;;;;;;5075166;28;20455;-71
2022/09/07 14:09:26;;;;;;;8.60;5.47;;;24.20;1.00;;;;;;5075656;28;20507;-75
2022/09/07 14:11:53;;;;;;;5.20;4.70;;;24.20;1.00;;;;;;5075543;28;20392;-74
2022/09/07 14:14:26;;;;;;;6.20;5.60;;;24.40;1.00;;;;;;5075240;28;20448;-70
2022/09/07 14:17:04;;;;;;;5.83;5.37;;;24.50;1.00;;;;;;5074565;28;20810;-74
2022/09/07 14:19:38;;;;;;;5.93;5.00;;;24.40;1.00;;;;;;5075182;28;20436;-71